Time;durP1;ratioP1;P1;durP2;ratioP2;P2;SDS_P1;SDS_P2;PMS_P1;PMS_P2;Temp;Humidity;BMP_temperature;BMP_pressure;BME280_temperature;BME280_humidity;BME280_pressure;Samples;Min_cycle;Max_cycle;Signal;HPM_P1;HPM_P2
2023/08/02 00:00:59;;;;;;;8.85;6.68;;;;;;;;;;5084377;28;20033;-54
2023/08/02 00:03:25;;;;;;;12.10;6.85;;;;;;;;;;5083801;28;20032;-51
2023/08/02 00:06:01;;;;;;;8.98;6.20;;;;;;;;;;5084414;28;20012;-51
2023/08/02 00:08:29;;;;;;;7.20;5.93;;;;;;;;;;5087648;28;20036;-50
2023/08/02 00:10:55;;;;;;;10.10;5.30;;;;;;;;;;5087873;28;20028;-50
2023/08/02 00:13:22;;;;;;;9.02;5.35;;;;;;;;;;5087704;28;20025;-53
2023/08/02 00:15:53;;;;;;;6.82;5.18;;;;;;;;;;5088087;28;20037;-54
2023/08/02 00:18:19;;;;;;;10.23;5.55;;;;;;;;;;5087232;28;20036;-53
2023/08/02 00:20:48;;;;;;;8.50;6.00;;;;;;;;;;5087606;28;20019;-53
2023/08/02 00:23:15;;;;;;;10.52;6.03;;;;;;;;;;5087410;28;20031;-50
2023/08/02 00:25:42;;;;;;;8.25;5.68;;;;;;;;;;5087567;28;20052;-57
2023/08/02 00:28:09;;;;;;;9.50;5.32;;;;;;;;;;5087335;28;20044;-52
2023/08/02 00:30:44;;;;;;;6.30;5.32;;;;;;;;;;5087435;28;20157;-50
2023/08/02 00:33:12;;;;;;;8.45;5.38;;;;;;;;;;5087510;28;20017;-49
2023/08/02 00:35:45;;;;;;;8.73;5.57;;;;;;;;;;5087465;28;20048;-50
2023/08/02 00:38:12;;;;;;;8.88;5.60;;;;;;;;;;5082950;28;20024;-52
2023/08/02 00:40:39;;;;;;;10.85;5.30;;;;;;;;;;5072903;28;20037;-49
2023/08/02 00:43:06;;;;;;;6.75;5.35;;;;;;;;;;5086014;28;20074;-49
2023/08/02 00:45:33;;;;;;;7.15;5.43;;;;;;;;;;5063684;28;20047;-54
2023/08/02 00:48:00;;;;;;;7.35;5.25;;;;;;;;;;5055987;28;20044;-54
2023/08/02 00:50:28;;;;;;;8.68;5.43;;;;;;;;;;5060922;28;20348;-54
2023/08/02 00:52:55;;;;;;;6.63;5.95;;;;;;;;;;5059186;28;20028;-54
2023/08/02 00:55:21;;;;;;;9.50;5.07;;;;;;;;;;5055219;28;20041;-52
2023/08/02 00:57:48;;;;;;;11.80;5.75;;;;;;;;;;5056709;28;20032;-50
2023/08/02 01:00:15;;;;;;;7.25;5.43;;;;;;;;;;5057568;28;20324;-49
2023/08/02 01:02:41;;;;;;;7.93;5.47;;;;;;;;;;5046378;28;20101;-48
2023/08/02 01:05:08;;;;;;;7.28;4.80;;;;;;;;;;5046363;28;20021;-51
2023/08/02 01:07:41;;;;;;;8.43;4.72;;;;;;;;;;5052261;28;20112;-46
2023/08/02 01:10:13;;;;;;;9.77;5.05;;;;;;;;;;5058784;28;20112;-45
2023/08/02 01:12:43;;;;;;;7.95;4.65;;;;;;;;;;5058959;28;20095;-50
2023/08/02 01:15:09;;;;;;;7.88;4.53;;;;;;;;;;5059163;28;20209;-50
2023/08/02 01:17:36;;;;;;;8.20;4.90;;;;;;;;;;5045825;28;20033;-49
2023/08/02 01:20:06;;;;;;;6.78;4.28;;;;;;;;;;5046290;28;20044;-50
2023/08/02 01:22:33;;;;;;;9.70;4.80;;;;;;;;;;5046398;28;20100;-54
2023/08/02 01:25:00;;;;;;;7.50;5.10;;;;;;;;;;5046346;28;20021;-50
2023/08/02 01:27:38;;;;;;;6.60;4.95;;;;;;;;;;5046533;28;20021;-47
2023/08/02 01:30:07;;;;;;;7.97;4.65;;;;;;;;;;5046079;28;20041;-46
2023/08/02 01:32:34;;;;;;;9.80;5.25;;;;;;;;;;5045841;28;20029;-50
2023/08/02 01:35:01;;;;;;;8.90;5.55;;;;;;;;;;5045775;28;20025;-49
2023/08/02 01:37:28;;;;;;;6.53;4.93;;;;;;;;;;5048542;28;20060;-58
2023/08/02 01:39:55;;;;;;;7.05;5.25;;;;;;;;;;5057302;28;20420;-51
2023/08/02 01:42:21;;;;;;;7.47;4.50;;;;;;;;;;5065953;28;20013;-49
2023/08/02 01:44:48;;;;;;;8.27;4.57;;;;;;;;;;5059718;28;20108;-48
2023/08/02 01:47:17;;;;;;;8.60;4.82;;;;;;;;;;5049178;28;20035;-48
2023/08/02 01:49:44;;;;;;;6.35;5.10;;;;;;;;;;5045489;28;20292;-49
2023/08/02 01:52:11;;;;;;;10.32;4.97;;;;;;;;;;5045477;28;20100;-46
2023/08/02 01:54:37;;;;;;;9.02;4.70;;;;;;;;;;5044842;28;20048;-43
2023/08/02 01:57:04;;;;;;;8.77;5.20;;;;;;;;;;5045367;28;20038;-50
2023/08/02 01:59:31;;;;;;;7.80;5.30;;;;;;;;;;5045321;28;20229;-50
2023/08/02 02:01:57;;;;;;;7.57;4.82;;;;;;;;;;5045333;28;20037;-50
2023/08/02 02:04:24;;;;;;;6.57;4.85;;;;;;;;;;5061359;28;20224;-47
2023/08/02 02:06:51;;;;;;;6.75;5.15;;;;;;;;;;5044989;28;20064;-51
2023/08/02 02:09:17;;;;;;;7.60;4.90;;;;;;;;;;5054962;28;20048;-50
2023/08/02 02:11:44;;;;;;;5.00;4.30;;;;;;;;;;5045756;28;20017;-50
2023/08/02 02:14:11;;;;;;;7.47;4.55;;;;;;;;;;5044725;28;20121;-49
2023/08/02 02:16:38;;;;;;;10.68;4.88;;;;;;;;;;5056065;28;20040;-49
2023/08/02 02:19:04;;;;;;;8.57;4.70;;;;;;;;;;5045319;28;20033;-47
2023/08/02 02:21:31;;;;;;;7.50;4.28;;;;;;;;;;5044882;28;20061;-46
2023/08/02 02:23:57;;;;;;;10.80;4.25;;;;;;;;;;5060664;28;20080;-50
2023/08/02 02:26:26;;;;;;;10.02;5.05;;;;;;;;;;5044664;28;20022;-48
2023/08/02 02:28:53;;;;;;;7.25;4.90;;;;;;;;;;5044266;28;20025;-51
2023/08/02 02:31:19;;;;;;;9.15;5.30;;;;;;;;;;5044709;28;20044;-53
2023/08/02 02:33:46;;;;;;;15.07;6.10;;;;;;;;;;5044716;28;20049;-50
2023/08/02 02:36:15;;;;;;;9.27;6.20;;;;;;;;;;5044506;28;20351;-49
2023/08/02 02:38:41;;;;;;;12.70;5.65;;;;;;;;;;5051180;28;20215;-45
2023/08/02 02:41:08;;;;;;;8.48;5.25;;;;;;;;;;5055525;28;20369;-45
2023/08/02 02:43:36;;;;;;;9.60;5.35;;;;;;;;;;5064249;28;20091;-42
2023/08/02 02:46:03;;;;;;;7.72;5.43;;;;;;;;;;5064493;28;20028;-47
2023/08/02 02:48:30;;;;;;;12.80;5.45;;;;;;;;;;5064726;28;20024;-48
2023/08/02 02:50:57;;;;;;;9.95;4.75;;;;;;;;;;5064299;28;20048;-47
2023/08/02 02:53:23;;;;;;;6.00;4.80;;;;;;;;;;5064738;28;20174;-49
2023/08/02 02:55:51;;;;;;;10.98;4.75;;;;;;;;;;5064365;28;20025;-44
2023/08/02 02:58:19;;;;;;;8.65;4.55;;;;;;;;;;5064367;28;20217;-46
2023/08/02 03:00:46;;;;;;;10.60;4.47;;;;;;;;;;5064362;28;20033;-43
2023/08/02 03:03:12;;;;;;;8.95;4.18;;;;;;;;;;5064539;28;20255;-53
2023/08/02 03:05:39;;;;;;;5.32;3.90;;;;;;;;;;5064357;28;20044;-52
2023/08/02 03:08:06;;;;;;;8.05;3.85;;;;;;;;;;5064660;28;20025;-54
2023/08/02 03:10:33;;;;;;;7.50;4.50;;;;;;;;;;5057442;28;20063;-47
2023/08/02 03:13:00;;;;;;;7.82;3.97;;;;;;;;;;5044856;28;20022;-51
2023/08/02 03:15:26;;;;;;;10.05;4.38;;;;;;;;;;5059301;28;20026;-47
2023/08/02 03:17:53;;;;;;;7.45;4.40;;;;;;;;;;5052776;28;20360;-46
2023/08/02 03:20:20;;;;;;;7.97;4.10;;;;;;;;;;5043914;28;20105;-49
2023/08/02 03:22:46;;;;;;;6.35;3.90;;;;;;;;;;5044266;28;20097;-47
2023/08/02 03:25:13;;;;;;;7.82;3.97;;;;;;;;;;5044039;28;20025;-51
2023/08/02 03:27:40;;;;;;;7.80;4.18;;;;;;;;;;5044259;28;20036;-51
2023/08/02 03:30:07;;;;;;;6.57;3.78;;;;;;;;;;5044281;28;20041;-50
2023/08/02 03:32:33;;;;;;;8.60;4.07;;;;;;;;;;5044052;28;20364;-51
2023/08/02 03:35:00;;;;;;;5.28;3.90;;;;;;;;;;5046408;28;20032;-49
2023/08/02 03:37:27;;;;;;;6.43;3.63;;;;;;;;;;5052644;28;20128;-49
2023/08/02 03:39:53;;;;;;;8.57;3.88;;;;;;;;;;5044471;28;20037;-48
2023/08/02 03:42:20;;;;;;;10.55;3.97;;;;;;;;;;5063066;28;20043;-49
2023/08/02 03:44:47;;;;;;;7.10;3.88;;;;;;;;;;5057758;28;20079;-49
2023/08/02 03:47:13;;;;;;;5.72;3.55;;;;;;;;;;5064098;28;20017;-48
2023/08/02 03:49:41;;;;;;;7.90;3.78;;;;;;;;;;5053324;28;20329;-48
2023/08/02 03:52:07;;;;;;;7.97;3.42;;;;;;;;;;5050366;28;20186;-48
2023/08/02 03:54:34;;;;;;;7.95;3.22;;;;;;;;;;5061691;28;20025;-47
2023/08/02 03:57:01;;;;;;;5.50;3.55;;;;;;;;;;5050361;28;20262;-47
2023/08/02 03:59:27;;;;;;;6.70;3.58;;;;;;;;;;5050065;28;20233;-46
2023/08/02 04:01:54;;;;;;;10.15;4.25;;;;;;;;;;5050340;28;20020;-49
2023/08/02 04:04:21;;;;;;;7.32;3.80;;;;;;;;;;5050362;28;20040;-48
2023/08/02 04:06:48;;;;;;;7.50;3.60;;;;;;;;;;5050068;28;20070;-51
2023/08/02 04:09:15;;;;;;;6.75;3.55;;;;;;;;;;5050287;28;20057;-47
2023/08/02 04:11:41;;;;;;;12.27;3.80;;;;;;;;;;5050095;28;20039;-47
2023/08/02 04:14:08;;;;;;;4.68;3.30;;;;;;;;;;5050036;28;20052;-48
2023/08/02 04:16:35;;;;;;;6.68;3.60;;;;;;;;;;5050234;28;20028;-48
2023/08/02 04:19:01;;;;;;;5.43;3.30;;;;;;;;;;5050519;28;20100;-47
2023/08/02 04:21:28;;;;;;;6.70;3.47;;;;;;;;;;5049957;28;20045;-48
2023/08/02 04:23:54;;;;;;;7.45;3.50;;;;;;;;;;5050532;28;20194;-48
2023/08/02 04:26:21;;;;;;;9.20;3.50;;;;;;;;;;5051694;28;20380;-48
2023/08/02 04:28:48;;;;;;;8.20;3.60;;;;;;;;;;5059720;28;20040;-49
2023/08/02 04:31:15;;;;;;;5.82;3.60;;;;;;;;;;5050065;28;20028;-47
2023/08/02 04:33:41;;;;;;;3.65;3.10;;;;;;;;;;5050371;28;20213;-45
2023/08/02 04:36:08;;;;;;;5.72;3.30;;;;;;;;;;5050511;28;20232;-43
2023/08/02 04:38:35;;;;;;;7.15;3.80;;;;;;;;;;5062375;28;20313;-49
2023/08/02 04:41:01;;;;;;;7.93;3.72;;;;;;;;;;5051210;28;20074;-48
2023/08/02 04:43:28;;;;;;;8.32;3.58;;;;;;;;;;5049765;28;20045;-58
2023/08/02 04:45:55;;;;;;;5.65;3.63;;;;;;;;;;5055212;28;20045;-47
2023/08/02 04:48:21;;;;;;;5.55;3.65;;;;;;;;;;5065747;28;20030;-48
2023/08/02 04:50:48;;;;;;;7.88;3.78;;;;;;;;;;5061407;28;20025;-48
2023/08/02 04:53:14;;;;;;;11.38;3.58;;;;;;;;;;5066168;28;20021;-48
2023/08/02 04:55:42;;;;;;;9.63;4.10;;;;;;;;;;5067077;28;20028;-48
2023/08/02 04:58:09;;;;;;;8.45;3.47;;;;;;;;;;5066612;28;20052;-48
2023/08/02 05:00:36;;;;;;;12.13;3.88;;;;;;;;;;5066413;28;20040;-50
2023/08/02 05:03:03;;;;;;;9.35;3.30;;;;;;;;;;5066421;28;20033;-50
2023/08/02 05:05:30;;;;;;;6.25;3.40;;;;;;;;;;5065466;28;20032;-49
2023/08/02 05:07:58;;;;;;;7.40;3.42;;;;;;;;;;5066423;28;20032;-49
2023/08/02 05:10:24;;;;;;;11.23;3.72;;;;;;;;;;5060787;28;20025;-46
2023/08/02 05:12:51;;;;;;;7.03;3.33;;;;;;;;;;5056915;28;20080;-46
2023/08/02 05:15:18;;;;;;;6.88;3.78;;;;;;;;;;5055260;28;20021;-49
2023/08/02 05:17:44;;;;;;;8.00;3.53;;;;;;;;;;5046271;28;20093;-46
2023/08/02 05:20:11;;;;;;;8.93;4.05;;;;;;;;;;5060227;28;20025;-48
2023/08/02 05:22:38;;;;;;;7.25;3.40;;;;;;;;;;5057097;28;20017;-49
2023/08/02 05:25:05;;;;;;;6.70;3.22;;;;;;;;;;5066450;28;20100;-50
2023/08/02 05:27:31;;;;;;;6.97;3.38;;;;;;;;;;5065543;28;20033;-49
2023/08/02 05:29:58;;;;;;;6.05;3.45;;;;;;;;;;5057570;28;20021;-49
2023/08/02 05:32:25;;;;;;;6.85;2.80;;;;;;;;;;5057444;28;20053;-48
2023/08/02 05:34:51;;;;;;;4.95;3.10;;;;;;;;;;5046150;28;20074;-45
2023/08/02 05:37:18;;;;;;;7.80;3.30;;;;;;;;;;5045821;28;20040;-48
2023/08/02 05:39:44;;;;;;;9.20;2.97;;;;;;;;;;5045991;28;20021;-45
2023/08/02 05:42:11;;;;;;;6.57;3.00;;;;;;;;;;5065003;28;20166;-47
2023/08/02 05:44:39;;;;;;;7.28;2.97;;;;;;;;;;5072333;28;20055;-46
2023/08/02 05:47:05;;;;;;;5.97;2.95;;;;;;;;;;5086091;28;20028;-49
2023/08/02 05:49:32;;;;;;;8.90;2.60;;;;;;;;;;5086224;28;20324;-47
2023/08/02 05:51:59;;;;;;;5.50;2.80;;;;;;;;;;5080149;28;20020;-52
2023/08/02 05:54:25;;;;;;;7.95;3.22;;;;;;;;;;5065833;28;20039;-48
2023/08/02 05:56:52;;;;;;;6.97;3.33;;;;;;;;;;5065930;28;20041;-49
2023/08/02 05:59:19;;;;;;;11.55;3.17;;;;;;;;;;5065934;28;20032;-49
2023/08/02 06:01:45;;;;;;;10.55;2.85;;;;;;;;;;5065660;28;20036;-49
2023/08/02 06:04:12;;;;;;;9.32;2.92;;;;;;;;;;5084469;28;20020;-49
2023/08/02 06:06:39;;;;;;;6.45;2.72;;;;;;;;;;5085700;28;20209;-49
2023/08/02 06:09:05;;;;;;;7.10;3.13;;;;;;;;;;5085605;28;20082;-55
2023/08/02 06:11:32;;;;;;;4.53;3.03;;;;;;;;;;5084056;28;20066;-49
2023/08/02 06:13:59;;;;;;;5.85;2.90;;;;;;;;;;5069217;28;20248;-50
2023/08/02 06:16:26;;;;;;;12.60;2.97;;;;;;;;;;5065446;28;20316;-49
2023/08/02 06:18:53;;;;;;;7.30;3.00;;;;;;;;;;5065046;28;20324;-51
2023/08/02 06:21:20;;;;;;;6.60;3.05;;;;;;;;;;5066274;28;20029;-51
2023/08/02 06:23:46;;;;;;;6.75;2.95;;;;;;;;;;5067430;28;20036;-49
2023/08/02 06:26:13;;;;;;;6.30;3.15;;;;;;;;;;5078937;28;20028;-49
2023/08/02 06:28:40;;;;;;;6.28;3.00;;;;;;;;;;5085290;28;20261;-51
2023/08/02 06:31:06;;;;;;;7.25;3.22;;;;;;;;;;5084896;28;20044;-49
2023/08/02 06:33:33;;;;;;;8.52;2.97;;;;;;;;;;5085231;28;20225;-50
2023/08/02 06:36:00;;;;;;;5.45;3.30;;;;;;;;;;5085671;28;20027;-49
2023/08/02 06:38:26;;;;;;;8.55;3.30;;;;;;;;;;5084718;28;20037;-49
2023/08/02 06:40:53;;;;;;;7.70;3.05;;;;;;;;;;5085544;28;20036;-49
2023/08/02 06:43:19;;;;;;;6.88;3.45;;;;;;;;;;5084808;28;20052;-50
2023/08/02 06:45:47;;;;;;;6.20;3.03;;;;;;;;;;5084547;28;20224;-49
2023/08/02 06:48:14;;;;;;;7.63;3.17;;;;;;;;;;5084573;28;20043;-49
2023/08/02 06:50:41;;;;;;;8.52;3.40;;;;;;;;;;5084838;28;20017;-48
2023/08/02 06:53:07;;;;;;;8.13;3.50;;;;;;;;;;5084493;28;20036;-48
2023/08/02 06:55:34;;;;;;;5.53;2.92;;;;;;;;;;5065457;28;20048;-50
2023/08/02 06:58:01;;;;;;;6.13;2.75;;;;;;;;;;5064442;28;20017;-49
2023/08/02 07:00:29;;;;;;;4.57;2.83;;;;;;;;;;5064678;28;20060;-52
2023/08/02 07:02:59;;;;;;;6.07;3.10;;;;;;;;;;5083131;28;20028;-49
2023/08/02 07:05:28;;;;;;;4.25;3.28;;;;;;;;;;5085168;28;20303;-50
2023/08/02 07:07:55;;;;;;;7.18;3.30;;;;;;;;;;5077986;28;20062;-52
2023/08/02 07:10:23;;;;;;;7.63;3.63;;;;;;;;;;5064822;28;20123;-47
2023/08/02 07:12:49;;;;;;;8.05;3.35;;;;;;;;;;5064493;28;20088;-50
2023/08/02 07:15:16;;;;;;;9.02;3.60;;;;;;;;;;5064203;28;20040;-49
2023/08/02 07:17:44;;;;;;;7.10;3.15;;;;;;;;;;5064532;28;20070;-50
2023/08/02 07:20:11;;;;;;;8.00;3.47;;;;;;;;;;5064497;28;20076;-54
2023/08/02 07:22:38;;;;;;;8.27;3.20;;;;;;;;;;5064103;28;20029;-50
2023/08/02 07:25:05;;;;;;;7.13;3.50;;;;;;;;;;5064527;28;20054;-50
2023/08/02 07:27:31;;;;;;;7.10;3.33;;;;;;;;;;5064410;28;20041;-49
2023/08/02 07:29:58;;;;;;;7.95;3.20;;;;;;;;;;5063655;28;20095;-52
2023/08/02 07:32:25;;;;;;;5.88;2.78;;;;;;;;;;5064207;28;20053;-50
2023/08/02 07:34:52;;;;;;;8.13;3.22;;;;;;;;;;5064057;28;20080;-48
2023/08/02 07:37:19;;;;;;;5.82;3.17;;;;;;;;;;5064262;28;20043;-53
2023/08/02 07:39:46;;;;;;;5.43;2.90;;;;;;;;;;5064159;28;20050;-48
2023/08/02 07:42:12;;;;;;;4.30;3.13;;;;;;;;;;5064219;28;20059;-48
2023/08/02 07:44:39;;;;;;;6.80;3.17;;;;;;;;;;5063731;28;20056;-48
2023/08/02 07:47:06;;;;;;;5.53;3.00;;;;;;;;;;5063836;28;20246;-50
2023/08/02 07:49:32;;;;;;;8.18;3.00;;;;;;;;;;5063678;28;20032;-49
2023/08/02 07:51:59;;;;;;;3.33;3.03;;;;;;;;;;5063916;28;20060;-50
2023/08/02 07:54:26;;;;;;;5.45;3.00;;;;;;;;;;5064381;28;20037;-49
2023/08/02 07:56:52;;;;;;;5.78;2.85;;;;;;;;;;5063904;28;20033;-51
2023/08/02 07:59:19;;;;;;;6.65;3.13;;;;;;;;;;5063757;28;20036;-49
2023/08/02 08:01:46;;;;;;;7.70;3.20;;;;;;;;;;5063583;28;20035;-48
2023/08/02 08:04:12;;;;;;;7.55;3.35;;;;;;;;;;5063701;28;20032;-48
2023/08/02 08:06:39;;;;;;;6.22;2.95;;;;;;;;;;5063387;28;20064;-48
2023/08/02 08:09:06;;;;;;;7.10;3.00;;;;;;;;;;5063699;28;20240;-51
2023/08/02 08:11:32;;;;;;;6.05;2.80;;;;;;;;;;5064167;28;20032;-49
2023/08/02 08:13:59;;;;;;;5.60;2.90;;;;;;;;;;5063417;28;20033;-53
2023/08/02 08:16:26;;;;;;;8.15;2.88;;;;;;;;;;5063627;28;20288;-50
2023/08/02 08:18:52;;;;;;;9.68;3.17;;;;;;;;;;5063692;28;20020;-49
2023/08/02 08:21:19;;;;;;;9.63;2.70;;;;;;;;;;5063363;28;20037;-54
2023/08/02 08:23:46;;;;;;;5.47;2.60;;;;;;;;;;5063384;28;20025;-50
2023/08/02 08:26:12;;;;;;;6.90;2.55;;;;;;;;;;5063636;28;20025;-51
2023/08/02 08:28:39;;;;;;;11.55;3.10;;;;;;;;;;5066602;28;20032;-50
2023/08/02 08:31:06;;;;;;;5.68;2.80;;;;;;;;;;5067458;28;20033;-52
2023/08/02 08:33:32;;;;;;;6.60;2.78;;;;;;;;;;5067445;28;20031;-57
2023/08/02 08:35:59;;;;;;;4.63;2.50;;;;;;;;;;5067620;28;20210;-53
2023/08/02 08:38:26;;;;;;;6.28;2.30;;;;;;;;;;5066776;28;20036;-53
2023/08/02 08:40:57;;;;;;;5.03;2.20;;;;;;;;;;5068013;28;20063;-53
2023/08/02 08:43:28;;;;;;;5.75;2.35;;;;;;;;;;5066867;28;20052;-48
2023/08/02 08:45:55;;;;;;;5.38;2.63;;;;;;;;;;5067384;28;20089;-53
2023/08/02 08:48:23;;;;;;;4.35;2.15;;;;;;;;;;5066948;28;20078;-50
2023/08/02 08:50:50;;;;;;;6.88;2.25;;;;;;;;;;5067482;28;20119;-49
2023/08/02 08:53:24;;;;;;;6.65;2.53;;;;;;;;;;5066847;28;20029;-49
2023/08/02 08:55:51;;;;;;;6.68;2.38;;;;;;;;;;5067056;28;20086;-52
2023/08/02 08:58:17;;;;;;;4.82;2.03;;;;;;;;;;5066550;28;20036;-49
2023/08/02 09:00:44;;;;;;;6.05;2.17;;;;;;;;;;5066521;28;20084;-48
2023/08/02 09:03:15;;;;;;;5.93;2.03;;;;;;;;;;5066577;28;20029;-50
2023/08/02 09:05:42;;;;;;;4.68;2.00;;;;;;;;;;5067095;28;20035;-50
2023/08/02 09:08:10;;;;;;;4.18;1.77;;;;;;;;;;5066672;28;20025;-52
2023/08/02 09:10:37;;;;;;;7.90;2.13;;;;;;;;;;5067076;28;20029;-49
2023/08/02 09:13:03;;;;;;;7.10;2.03;;;;;;;;;;5066472;28;20084;-50
2023/08/02 09:15:30;;;;;;;5.25;2.15;;;;;;;;;;5067168;28;20320;-50
2023/08/02 09:17:58;;;;;;;5.85;2.00;;;;;;;;;;5066262;28;20324;-56
2023/08/02 09:20:28;;;;;;;5.75;2.28;;;;;;;;;;5067105;28;20025;-54
2023/08/02 09:22:54;;;;;;;8.00;2.47;;;;;;;;;;5066504;28;20072;-52
2023/08/02 09:25:23;;;;;;;4.68;2.17;;;;;;;;;;5066938;28;20029;-54
2023/08/02 09:27:50;;;;;;;5.55;2.13;;;;;;;;;;5066024;28;20025;-52
2023/08/02 09:30:24;;;;;;;4.18;2.00;;;;;;;;;;5066294;28;20047;-55
2023/08/02 09:33:07;;;;;;;7.38;2.20;;;;;;;;;;5066036;28;20037;-52
2023/08/02 09:35:47;;;;;;;6.57;2.03;;;;;;;;;;5066564;28;20033;-49
2023/08/02 09:38:14;;;;;;;6.47;2.10;;;;;;;;;;5066137;28;20276;-52
2023/08/02 09:40:42;;;;;;;5.93;2.17;;;;;;;;;;5066526;28;20048;-51
2023/08/02 09:43:13;;;;;;;5.22;2.47;;;;;;;;;;5066052;28;20021;-51
2023/08/02 09:45:40;;;;;;;4.88;1.90;;;;;;;;;;5066437;28;20206;-51
2023/08/02 09:48:07;;;;;;;4.68;2.15;;;;;;;;;;5065932;28;20079;-48
2023/08/02 09:50:33;;;;;;;8.98;2.55;;;;;;;;;;5065580;28;20027;-49
2023/08/02 09:53:29;;;;;;;4.47;2.40;;;;;;;;;;5065451;28;20037;-50
2023/08/02 09:55:56;;;;;;;6.35;2.67;;;;;;;;;;5060978;28;20043;-49
2023/08/02 09:58:23;;;;;;;7.90;2.60;;;;;;;;;;5065227;28;20100;-50
2023/08/02 10:00:50;;;;;;;4.88;2.63;;;;;;;;;;5065350;28;20033;-49
2023/08/02 10:03:17;;;;;;;3.65;2.25;;;;;;;;;;5065800;28;20070;-48
2023/08/02 10:05:48;;;;;;;7.55;2.47;;;;;;;;;;5065842;28;20123;-47
2023/08/02 10:08:15;;;;;;;8.05;2.95;;;;;;;;;;5066115;28;20028;-53
2023/08/02 10:10:44;;;;;;;8.18;3.22;;;;;;;;;;5065142;28;20024;-50
2023/08/02 10:13:24;;;;;;;4.93;2.72;;;;;;;;;;5065144;28;20259;-51
2023/08/02 10:15:51;;;;;;;7.93;3.03;;;;;;;;;;5065674;28;20037;-50
2023/08/02 10:18:18;;;;;;;16.20;3.35;;;;;;;;;;5065120;28;20041;-49
2023/08/02 10:20:48;;;;;;;9.23;3.20;;;;;;;;;;5065462;28;20104;-56
2023/08/02 10:23:15;;;;;;;5.25;2.70;;;;;;;;;;5065136;28;20364;-49
2023/08/02 10:25:42;;;;;;;6.28;2.72;;;;;;;;;;5065250;28;20029;-50
2023/08/02 10:28:10;;;;;;;6.40;2.70;;;;;;;;;;5064854;28;20028;-52
2023/08/02 10:30:36;;;;;;;7.97;3.05;;;;;;;;;;5064887;28;20040;-51
2023/08/02 10:33:15;;;;;;;8.60;3.05;;;;;;;;;;5064552;28;20037;-50
2023/08/02 10:35:54;;;;;;;7.05;2.95;;;;;;;;;;5065163;28;20044;-50
2023/08/02 10:38:41;;;;;;;9.25;2.92;;;;;;;;;;5064525;28;20036;-50
2023/08/02 10:41:09;;;;;;;9.82;3.00;;;;;;;;;;5064823;28;20017;-53
2023/08/02 10:43:57;;;;;;;9.55;3.10;;;;;;;;;;5064394;28;20055;-52
2023/08/02 10:46:32;;;;;;;7.85;2.58;;;;;;;;;;5064064;28;20035;-53
2023/08/02 10:49:10;;;;;;;9.73;3.30;;;;;;;;;;5064393;28;20037;-49
2023/08/02 10:51:38;;;;;;;7.72;2.92;;;;;;;;;;5064334;28;20033;-52
2023/08/02 10:54:11;;;;;;;8.88;2.90;;;;;;;;;;5064782;28;20047;-49
2023/08/02 10:56:58;;;;;;;7.18;3.17;;;;;;;;;;5064610;28;20036;-52
2023/08/02 10:59:25;;;;;;;13.73;2.90;;;;;;;;;;5064510;28;20068;-50
2023/08/02 11:02:02;;;;;;;7.80;3.22;;;;;;;;;;5070843;28;20036;-50
2023/08/02 11:04:34;;;;;;;9.70;3.60;;;;;;;;;;5068716;28;20025;-54
2023/08/02 11:07:13;;;;;;;12.05;3.80;;;;;;;;;;5050101;28;20076;-49
2023/08/02 11:09:40;;;;;;;5.03;3.45;;;;;;;;;;5051916;28;20174;-51
2023/08/02 11:12:14;;;;;;;20.05;18.05;;;;;;;;;;5064602;28;20040;-49
2023/08/02 11:14:41;;;;;;;45.05;40.55;;;;;;;;;;5064612;28;20040;-51
2023/08/02 11:17:08;;;;;;;72.35;65.82;;;;;;;;;;5064260;28;20059;-51
2023/08/02 11:19:37;;;;;;;40.63;36.85;;;;;;;;;;5064253;28;20021;-53
2023/08/02 11:22:04;;;;;;;27.33;22.55;;;;;;;;;;5064155;28;20032;-50
2023/08/02 11:24:51;;;;;;;22.60;20.15;;;;;;;;;;5064157;28;20063;-49
2023/08/02 11:27:19;;;;;;;17.88;13.32;;;;;;;;;;5064034;28;20037;-48
2023/08/02 11:29:58;;;;;;;15.52;12.27;;;;;;;;;;5064130;28;20055;-50
2023/08/02 11:32:26;;;;;;;13.38;11.98;;;;;;;;;;5064578;28;20317;-49
2023/08/02 11:34:53;;;;;;;16.20;10.70;;;;;;;;;;5064052;28;20036;-50
2023/08/02 11:37:20;;;;;;;11.88;9.00;;;;;;;;;;5064067;28;20029;-52
2023/08/02 11:39:54;;;;;;;13.93;8.68;;;;;;;;;;5064157;28;20040;-48
2023/08/02 11:42:20;;;;;;;9.38;6.38;;;;;;;;;;5063948;28;20032;-52
2023/08/02 11:44:47;;;;;;;8.07;5.40;;;;;;;;;;5064499;28;20053;-56
2023/08/02 11:47:14;;;;;;;9.68;5.70;;;;;;;;;;5064439;28;20237;-48
2023/08/02 11:49:50;;;;;;;11.27;4.75;;;;;;;;;;5064262;28;20044;-51
2023/08/02 11:52:26;;;;;;;9.23;4.80;;;;;;;;;;5063933;28;20095;-54
2023/08/02 11:54:55;;;;;;;7.10;4.60;;;;;;;;;;5064122;28;20043;-53
2023/08/02 11:57:23;;;;;;;8.13;6.32;;;;;;;;;;5063948;28;20032;-53
2023/08/02 11:59:50;;;;;;;7.95;4.25;;;;;;;;;;5060332;28;20368;-51
2023/08/02 12:02:30;;;;;;;5.82;4.60;;;;;;;;;;5046418;28;20021;-50
2023/08/02 12:05:08;;;;;;;7.78;5.03;;;;;;;;;;5063299;28;20044;-48
2023/08/02 12:07:36;;;;;;;6.30;4.40;;;;;;;;;;5047611;28;20049;-48
2023/08/02 12:10:06;;;;;;;7.80;4.25;;;;;;;;;;5048091;28;20079;-48
2023/08/02 12:12:34;;;;;;;6.68;4.22;;;;;;;;;;5048087;28;20029;-50
2023/08/02 12:15:10;;;;;;;5.47;3.67;;;;;;;;;;5048092;28;20080;-48
2023/08/02 12:17:40;;;;;;;6.80;4.18;;;;;;;;;;5048831;28;20064;-49
2023/08/02 12:20:07;;;;;;;7.35;4.05;;;;;;;;;;5048934;28;20025;-52
2023/08/02 12:22:50;;;;;;;8.20;4.10;;;;;;;;;;5048475;28;20024;-47
2023/08/02 12:25:17;;;;;;;7.20;3.50;;;;;;;;;;5048315;28;20052;-50
2023/08/02 12:27:44;;;;;;;5.40;3.78;;;;;;;;;;5047520;28;20325;-48
2023/08/02 12:30:10;;;;;;;5.35;3.58;;;;;;;;;;5047172;28;20021;-54
2023/08/02 12:32:37;;;;;;;5.07;3.63;;;;;;;;;;5047331;28;20040;-51
2023/08/02 12:35:07;;;;;;;5.35;3.40;;;;;;;;;;5047349;28;20033;-50
2023/08/02 12:37:34;;;;;;;7.25;3.80;;;;;;;;;;5047444;28;20021;-57
2023/08/02 12:40:01;;;;;;;5.35;3.78;;;;;;;;;;5047095;28;20044;-49
2023/08/02 12:42:28;;;;;;;6.25;3.50;;;;;;;;;;5046937;28;20104;-49
2023/08/02 12:44:55;;;;;;;5.50;3.63;;;;;;;;;;5047254;28;20050;-48
2023/08/02 12:47:21;;;;;;;7.40;3.42;;;;;;;;;;5047173;28;20048;-52
2023/08/02 12:49:48;;;;;;;5.35;3.20;;;;;;;;;;5046781;28;20052;-49
2023/08/02 12:52:14;;;;;;;6.75;3.25;;;;;;;;;;5046849;28;20222;-48
2023/08/02 12:54:41;;;;;;;4.55;3.35;;;;;;;;;;5046775;28;20029;-48
2023/08/02 12:57:08;;;;;;;5.63;3.47;;;;;;;;;;5046544;28;20325;-53
2023/08/02 12:59:34;;;;;;;5.15;3.20;;;;;;;;;;5047081;28;20028;-51
2023/08/02 13:02:01;;;;;;;3.47;2.95;;;;;;;;;;5047001;28;20305;-51
2023/08/02 13:04:27;;;;;;;5.53;3.45;;;;;;;;;;5047012;28;20089;-52
2023/08/02 13:06:54;;;;;;;5.95;2.90;;;;;;;;;;5046828;28;20045;-49
2023/08/02 13:09:22;;;;;;;4.97;3.25;;;;;;;;;;5046927;28;20033;-53
2023/08/02 13:11:49;;;;;;;5.20;3.03;;;;;;;;;;5046877;28;20052;-50
2023/08/02 13:14:15;;;;;;;5.90;3.00;;;;;;;;;;5046004;28;20223;-49
2023/08/02 13:16:42;;;;;;;5.13;3.28;;;;;;;;;;5046553;28;20083;-49
2023/08/02 13:19:08;;;;;;;6.28;3.10;;;;;;;;;;5046638;28;20079;-48
2023/08/02 13:21:35;;;;;;;8.82;3.17;;;;;;;;;;5046522;28;20079;-50
2023/08/02 13:24:02;;;;;;;6.95;3.20;;;;;;;;;;5046447;28;20177;-50
2023/08/02 13:26:29;;;;;;;6.75;3.28;;;;;;;;;;5046908;28;20037;-55
2023/08/02 13:28:58;;;;;;;4.50;3.17;;;;;;;;;;5046464;28;20074;-49
2023/08/02 13:31:25;;;;;;;4.15;2.80;;;;;;;;;;5046604;28;20289;-49
2023/08/02 13:33:51;;;;;;;3.70;2.97;;;;;;;;;;5046255;28;20225;-50
2023/08/02 13:36:18;;;;;;;7.38;3.30;;;;;;;;;;5046741;28;20035;-49
2023/08/02 13:38:45;;;;;;;8.00;3.10;;;;;;;;;;5045835;28;20041;-49
2023/08/02 13:41:11;;;;;;;6.07;3.28;;;;;;;;;;5045867;28;20037;-49
2023/08/02 13:43:38;;;;;;;9.27;3.40;;;;;;;;;;5045960;28;20037;-49
2023/08/02 13:46:04;;;;;;;4.13;3.33;;;;;;;;;;5046619;28;20029;-49
2023/08/02 13:48:31;;;;;;;3.33;2.90;;;;;;;;;;5046205;28;20038;-53
2023/08/02 13:50:58;;;;;;;6.30;3.28;;;;;;;;;;5046640;28;20017;-48
2023/08/02 13:53:25;;;;;;;4.20;3.20;;;;;;;;;;5045902;28;20278;-49
2023/08/02 13:55:51;;;;;;;4.18;3.10;;;;;;;;;;5046667;28;20296;-49
2023/08/02 13:58:18;;;;;;;4.45;2.90;;;;;;;;;;5045952;28;20313;-48
2023/08/02 14:00:45;;;;;;;5.13;3.20;;;;;;;;;;5050924;28;20033;-51
2023/08/02 14:03:11;;;;;;;4.55;3.33;;;;;;;;;;5065872;28;20084;-52
2023/08/02 14:05:38;;;;;;;4.75;3.13;;;;;;;;;;5066085;28;20017;-53
2023/08/02 14:08:05;;;;;;;9.23;2.90;;;;;;;;;;5065470;28;20033;-52
2023/08/02 14:10:31;;;;;;;5.43;3.53;;;;;;;;;;5065763;28;20092;-51
2023/08/02 14:12:59;;;;;;;4.82;3.30;;;;;;;;;;5065360;28;20262;-52
2023/08/02 14:15:26;;;;;;;6.38;3.33;;;;;;;;;;5065815;28;20031;-50
2023/08/02 14:17:52;;;;;;;5.47;3.40;;;;;;;;;;5065474;28;20043;-50
2023/08/02 14:20:19;;;;;;;5.53;2.97;;;;;;;;;;5065569;28;20044;-54
2023/08/02 14:22:46;;;;;;;6.20;3.17;;;;;;;;;;5065328;28;20079;-51
2023/08/02 14:25:13;;;;;;;7.55;3.33;;;;;;;;;;5064613;28;20028;-50
2023/08/02 14:27:39;;;;;;;5.68;3.20;;;;;;;;;;5065260;28;20039;-49
2023/08/02 14:30:06;;;;;;;6.85;3.65;;;;;;;;;;5065184;28;20332;-49
2023/08/02 14:32:33;;;;;;;7.10;3.65;;;;;;;;;;5064553;28;20041;-52
2023/08/02 14:35:01;;;;;;;4.35;3.20;;;;;;;;;;5058197;28;20021;-48
2023/08/02 14:37:28;;;;;;;4.68;3.20;;;;;;;;;;5054616;28;20040;-50
2023/08/02 14:39:54;;;;;;;4.97;3.40;;;;;;;;;;5055170;28;20037;-51
2023/08/02 14:42:21;;;;;;;5.57;3.50;;;;;;;;;;5054869;28;20025;-52
2023/08/02 14:44:48;;;;;;;4.97;2.90;;;;;;;;;;5046729;28;20132;-56